Skip Navigation Links Skip Navigation Links

Current Weather

Oslo / Gardermoen, Norway

For information only: do not use for flight planning or navigation.
Latest weather
Observation time Tuesday, September 28, 2021 11:50 AM CEST
Local time Tuesday, September 28, 2021 12:28 PM CEST
Flight conditions Marginal Visual Meteorological Conditions
Winds
Wind direction South-Southeast (150°)
Wind speed 9 mph
Visibility 6.2 mi.
Sky condition
Ceiling 1,200 ft. broken clouds
Cloud layer few clouds 900 ft.
Cloud layer broken clouds 1,200 ft.
Temperature 55°F
Dewpoint 52°F
Altimeter 30.06 in.Hg
Derived measurements
Relative humidity 88%
Density altitude -194 ft.
METAR ENGM 280950Z 15008KT 9999 FEW009 BKN012 13/11 Q1018

Settings

Location code

InnerDrive.Weather 4.0.6770.0 Release CLR 4.0.30319.42000
Copyright ©2018 Inner Drive Technology. All rights reserved. Portions Copyright ©1986-2018 David Braverman.

Find weather

Site navigation


Skip Navigation Links

Place info

Page info

PayPal - The safer, easier way to pay online!

Return home.

Copyright ©2021 Inner Drive Technology. Purveyors of fine, hand-crafted computer software. Page printed 2021-09-28T10:28:39 UTC.